Time;durP1;ratioP1;P1;durP2;ratioP2;P2;SDS_P1;SDS_P2;PMS_P1;PMS_P2;Temp;Humidity;BMP_temperature;BMP_pressure;BME280_temperature;BME280_humidity;BME280_pressure;Samples;Min_cycle;Max_cycle;Signal;HPM_P1;HPM_P2
2023/07/22 00:01:12;;;;;;;2.70;2.10;;;;;;;;;;4918245;29;20059;-78
2023/07/22 00:03:40;;;;;;;3.15;2.20;;;;;;;;;;4917784;29;20056;-78
2023/07/22 00:06:09;;;;;;;2.85;2.33;;;;;;;;;;4932842;29;20051;-78
2023/07/22 00:08:36;;;;;;;4.30;2.88;;;;;;;;;;4947579;29;20051;-78
2023/07/22 00:11:06;;;;;;;2.85;2.40;;;;;;;;;;4933081;29;20410;-78
2023/07/22 00:13:38;;;;;;;3.90;2.60;;;;;;;;;;4919257;29;20071;-78
2023/07/22 00:16:07;;;;;;;2.42;2.22;;;;;;;;;;4945901;29;20051;-78
2023/07/22 00:18:35;;;;;;;4.03;2.45;;;;;;;;;;4913919;29;20052;-78
2023/07/22 00:21:05;;;;;;;4.32;2.45;;;;;;;;;;4929799;29;20056;-78
2023/07/22 00:23:34;;;;;;;3.15;2.38;;;;;;;;;;4913344;29;20063;-78
2023/07/22 00:26:02;;;;;;;2.33;2.13;;;;;;;;;;4932302;29;20441;-78
2023/07/22 00:28:29;;;;;;;2.50;2.17;;;;;;;;;;4930619;29;20414;-78
2023/07/22 00:30:59;;;;;;;2.22;1.92;;;;;;;;;;4930631;29;20418;-78
2023/07/22 00:33:28;;;;;;;2.50;2.30;;;;;;;;;;4931798;29;20063;-78
2023/07/22 00:35:57;;;;;;;2.60;2.40;;;;;;;;;;4930661;29;20051;-78
2023/07/22 00:38:27;;;;;;;4.75;1.88;;;;;;;;;;4915866;29;20055;-78
2023/07/22 00:41:05;;;;;;;2.20;1.85;;;;;;;;;;4927691;29;20059;-78
2023/07/22 00:43:34;;;;;;;1.98;1.77;;;;;;;;;;4911012;29;20067;-78
2023/07/22 00:46:04;;;;;;;4.38;2.33;;;;;;;;;;4922446;29;20063;-78
2023/07/22 00:48:33;;;;;;;2.55;2.17;;;;;;;;;;4929331;29;20052;-76
2023/07/22 00:51:01;;;;;;;2.97;2.10;;;;;;;;;;4929998;29;20441;-77
2023/07/22 00:53:28;;;;;;;3.08;2.72;;;;;;;;;;4931778;29;20062;-77
2023/07/22 00:55:55;;;;;;;2.88;2.00;;;;;;;;;;4931038;29;20054;-76
2023/07/22 00:58:23;;;;;;;3.28;2.45;;;;;;;;;;4914389;29;20066;-76
2023/07/22 01:00:50;;;;;;;2.67;1.98;;;;;;;;;;4929155;29;20422;-76
2023/07/22 01:03:18;;;;;;;2.70;2.22;;;;;;;;;;4929569;29;20438;-76
2023/07/22 01:05:51;;;;;;;1.95;1.67;;;;;;;;;;4915952;29;20063;-76
2023/07/22 01:08:18;;;;;;;4.32;2.38;;;;;;;;;;4928340;29;20052;-76
2023/07/22 01:10:48;;;;;;;2.38;2.17;;;;;;;;;;4914293;29;20059;-77
2023/07/22 01:13:15;;;;;;;3.88;2.22;;;;;;;;;;4912907;29;20052;-77
2023/07/22 01:15:42;;;;;;;3.00;2.33;;;;;;;;;;4915347;29;20585;-77
2023/07/22 01:18:10;;;;;;;4.75;2.25;;;;;;;;;;4956603;23;20054;-80
2023/07/22 01:20:38;;;;;;;2.65;2.17;;;;;;;;;;4933807;29;20071;-80
2023/07/22 01:23:07;;;;;;;4.57;2.35;;;;;;;;;;4934688;29;20056;-80
2023/07/22 01:25:34;;;;;;;2.58;2.20;;;;;;;;;;4941656;29;20054;-80
2023/07/22 01:28:01;;;;;;;2.47;2.10;;;;;;;;;;4940327;29;20043;-80
2023/07/22 01:30:28;;;;;;;2.13;1.90;;;;;;;;;;4939099;29;20062;-80
2023/07/22 01:32:56;;;;;;;3.40;2.70;;;;;;;;;;4923021;29;20066;-80
2023/07/22 01:35:26;;;;;;;3.13;2.25;;;;;;;;;;4925623;29;20051;-80
2023/07/22 01:37:53;;;;;;;4.72;2.38;;;;;;;;;;4926664;29;20047;-80
2023/07/22 01:40:23;;;;;;;3.60;2.15;;;;;;;;;;4926223;29;20055;-80
2023/07/22 01:42:52;;;;;;;1.98;1.77;;;;;;;;;;4924395;29;20055;-80
2023/07/22 01:45:22;;;;;;;3.03;2.10;;;;;;;;;;4944966;29;20417;-80
2023/07/22 01:47:52;;;;;;;2.60;1.88;;;;;;;;;;4942572;29;20048;-80
2023/07/22 01:50:22;;;;;;;2.60;2.40;;;;;;;;;;4946271;29;20047;-80
2023/07/22 01:52:52;;;;;;;3.25;2.80;;;;;;;;;;4926045;29;20051;-80
2023/07/22 01:55:23;;;;;;;3.15;2.70;;;;;;;;;;4922120;29;20067;-79
2023/07/22 01:57:52;;;;;;;2.83;2.22;;;;;;;;;;4915057;29;20058;-78
2023/07/22 02:00:24;;;;;;;4.40;2.17;;;;;;;;;;4937436;29;20417;-78
2023/07/22 02:02:54;;;;;;;4.32;2.70;;;;;;;;;;4926234;29;20070;-78
2023/07/22 02:05:23;;;;;;;2.95;2.67;;;;;;;;;;4919531;29;20062;-78
2023/07/22 02:07:55;;;;;;;5.35;2.70;;;;;;;;;;4931483;29;20062;-78
2023/07/22 02:10:26;;;;;;;2.63;2.05;;;;;;;;;;4936995;29;20425;-78
2023/07/22 02:12:53;;;;;;;2.67;2.00;;;;;;;;;;4942193;29;20062;-78
2023/07/22 02:15:22;;;;;;;2.50;2.20;;;;;;;;;;4934138;29;20058;-78
2023/07/22 02:17:49;;;;;;;7.38;2.65;;;;;;;;;;4936312;29;20362;-78
2023/07/22 02:20:17;;;;;;;3.92;2.75;;;;;;;;;;4937992;29;20050;-78
2023/07/22 02:22:46;;;;;;;2.55;2.30;;;;;;;;;;4924023;29;20051;-78
2023/07/22 02:25:18;;;;;;;2.78;2.58;;;;;;;;;;4946067;29;20047;-78
2023/07/22 02:27:50;;;;;;;3.15;2.85;;;;;;;;;;4951274;29;20051;-78
2023/07/22 02:30:19;;;;;;;6.22;2.42;;;;;;;;;;4934325;29;20047;-78
2023/07/22 02:32:46;;;;;;;3.15;2.15;;;;;;;;;;4917796;29;20052;-78
2023/07/22 02:35:13;;;;;;;3.85;1.75;;;;;;;;;;4936893;29;20051;-78
2023/07/22 02:37:40;;;;;;;3.35;2.30;;;;;;;;;;4927713;29;20051;-78
2023/07/22 02:40:11;;;;;;;5.07;2.80;;;;;;;;;;4918706;29;20051;-78
2023/07/22 02:42:38;;;;;;;2.70;2.05;;;;;;;;;;4921899;29;20413;-78
2023/07/22 02:45:11;;;;;;;2.53;2.22;;;;;;;;;;4937665;29;20394;-78
2023/07/22 02:47:39;;;;;;;2.40;2.20;;;;;;;;;;4915006;29;20055;-78
2023/07/22 02:50:08;;;;;;;2.33;2.10;;;;;;;;;;4936592;28;20540;-78
2023/07/22 02:52:35;;;;;;;2.20;2.00;;;;;;;;;;4920725;29;20055;-78
2023/07/22 02:55:08;;;;;;;5.07;2.13;;;;;;;;;;4935900;29;20051;-78
2023/07/22 02:57:36;;;;;;;4.10;2.78;;;;;;;;;;4950318;29;20051;-78
2023/07/22 03:00:07;;;;;;;2.40;2.20;;;;;;;;;;4920064;29;20052;-78
2023/07/22 03:02:39;;;;;;;2.83;2.35;;;;;;;;;;4928869;28;20050;-78
2023/07/22 03:05:08;;;;;;;4.28;2.50;;;;;;;;;;4935462;29;20051;-78
2023/07/22 03:07:35;;;;;;;13.93;2.40;;;;;;;;;;4932221;29;20055;-78
2023/07/22 03:10:03;;;;;;;2.83;2.55;;;;;;;;;;4950468;29;20394;-78
2023/07/22 03:12:32;;;;;;;3.10;2.30;;;;;;;;;;4936531;29;20073;-78
2023/07/22 03:15:00;;;;;;;3.42;2.63;;;;;;;;;;4917241;29;20062;-78
2023/07/22 03:17:29;;;;;;;2.85;2.40;;;;;;;;;;4918113;29;20059;-78
2023/07/22 03:19:58;;;;;;;3.03;2.60;;;;;;;;;;4920649;29;20047;-78
2023/07/22 03:22:25;;;;;;;5.35;2.42;;;;;;;;;;4919137;29;20070;-78
2023/07/22 03:24:55;;;;;;;3.20;2.90;;;;;;;;;;4930732;29;20063;-78
2023/07/22 03:27:25;;;;;;;2.97;2.40;;;;;;;;;;4940357;29;20051;-78
2023/07/22 03:29:54;;;;;;;2.70;2.40;;;;;;;;;;4934553;29;20078;-78
2023/07/22 03:32:21;;;;;;;3.10;2.80;;;;;;;;;;4913393;29;20051;-78
2023/07/22 03:34:49;;;;;;;3.25;2.88;;;;;;;;;;4936403;29;20047;-79
2023/07/22 03:37:20;;;;;;;2.90;2.42;;;;;;;;;;4936196;29;20066;-79
2023/07/22 03:39:50;;;;;;;2.60;2.40;;;;;;;;;;4934729;29;20050;-79
2023/07/22 03:42:17;;;;;;;7.75;2.67;;;;;;;;;;4915564;29;20051;-78
2023/07/22 03:44:45;;;;;;;2.90;2.13;;;;;;;;;;4919736;29;20058;-78
2023/07/22 03:47:12;;;;;;;2.53;2.25;;;;;;;;;;4924833;29;20047;-78
2023/07/22 03:49:40;;;;;;;2.95;2.65;;;;;;;;;;4934194;29;20043;-78
2023/07/22 03:52:08;;;;;;;3.55;2.53;;;;;;;;;;4922105;29;20048;-78
2023/07/22 03:54:37;;;;;;;3.30;2.80;;;;;;;;;;4936533;29;20099;-78
2023/07/22 03:57:07;;;;;;;3.42;2.83;;;;;;;;;;4915146;29;20413;-78
2023/07/22 03:59:36;;;;;;;3.30;3.00;;;;;;;;;;4918333;29;20059;-78
2023/07/22 04:02:06;;;;;;;3.45;3.15;;;;;;;;;;4930711;29;20512;-78
2023/07/22 04:04:33;;;;;;;3.40;2.63;;;;;;;;;;4947754;29;20066;-78
2023/07/22 04:07:01;;;;;;;4.43;3.10;;;;;;;;;;4943506;28;20047;-78
2023/07/22 04:09:28;;;;;;;5.15;3.30;;;;;;;;;;4919743;28;20070;-78
2023/07/22 04:11:59;;;;;;;3.20;2.70;;;;;;;;;;4947665;29;20513;-78
2023/07/22 04:14:27;;;;;;;3.40;2.67;;;;;;;;;;4930680;29;20051;-78
2023/07/22 04:16:59;;;;;;;2.70;2.50;;;;;;;;;;4938318;29;20445;-78
2023/07/22 04:19:27;;;;;;;3.45;3.13;;;;;;;;;;4934747;29;20043;-78
2023/07/22 04:22:00;;;;;;;3.13;2.83;;;;;;;;;;4931705;29;20066;-78
2023/07/22 04:24:32;;;;;;;3.35;2.35;;;;;;;;;;4933591;28;20061;-78
2023/07/22 04:27:06;;;;;;;3.47;2.40;;;;;;;;;;4932731;29;20050;-78
2023/07/22 04:29:34;;;;;;;6.13;2.70;;;;;;;;;;4935380;29;20051;-78
2023/07/22 04:32:02;;;;;;;4.13;2.33;;;;;;;;;;4932863;29;20081;-78
2023/07/22 04:34:32;;;;;;;3.95;3.05;;;;;;;;;;4949459;29;20062;-78
2023/07/22 04:37:00;;;;;;;3.03;2.17;;;;;;;;;;4924312;29;20052;-78
2023/07/22 04:39:30;;;;;;;3.33;2.08;;;;;;;;;;4932979;29;20051;-78
2023/07/22 04:41:59;;;;;;;3.78;2.65;;;;;;;;;;4931827;29;20066;-78
2023/07/22 04:44:28;;;;;;;5.13;3.03;;;;;;;;;;4938520;29;20055;-79
2023/07/22 04:46:58;;;;;;;4.65;3.00;;;;;;;;;;4924214;29;20047;-79
2023/07/22 04:49:27;;;;;;;4.88;3.05;;;;;;;;;;4936216;29;20047;-79
2023/07/22 04:51:54;;;;;;;5.57;2.90;;;;;;;;;;4921900;29;20055;-79
2023/07/22 04:54:22;;;;;;;3.47;2.83;;;;;;;;;;4935003;29;20047;-79
2023/07/22 04:56:52;;;;;;;5.30;3.28;;;;;;;;;;4944018;29;20391;-79
2023/07/22 04:59:19;;;;;;;3.95;3.22;;;;;;;;;;4921084;28;20058;-79
2023/07/22 05:01:48;;;;;;;4.28;3.78;;;;;;;;;;4957480;29;20050;-79
2023/07/22 05:04:17;;;;;;;4.13;3.58;;;;;;;;;;4940116;29;20366;-79
2023/07/22 05:06:44;;;;;;;3.78;2.90;;;;;;;;;;4957816;29;20043;-79
2023/07/22 05:09:12;;;;;;;3.42;3.22;;;;;;;;;;4941119;29;20051;-79
2023/07/22 05:11:41;;;;;;;4.88;3.25;;;;;;;;;;4926251;29;20066;-79
2023/07/22 05:14:08;;;;;;;5.60;3.80;;;;;;;;;;4958370;29;20540;-79
2023/07/22 05:16:38;;;;;;;4.45;2.88;;;;;;;;;;4957754;29;20442;-79
2023/07/22 05:19:08;;;;;;;4.30;2.90;;;;;;;;;;4941097;29;20043;-79
2023/07/22 05:21:35;;;;;;;3.17;2.88;;;;;;;;;;4943540;29;20059;-79
2023/07/22 05:24:02;;;;;;;4.75;4.18;;;;;;;;;;4957369;29;20058;-79
2023/07/22 05:26:30;;;;;;;3.92;2.67;;;;;;;;;;4919656;29;20406;-79
2023/07/22 05:29:00;;;;;;;7.53;3.92;;;;;;;;;;4960619;29;20066;-79
2023/07/22 05:31:27;;;;;;;3.20;2.85;;;;;;;;;;4940025;29;20051;-79
2023/07/22 05:33:55;;;;;;;3.42;2.90;;;;;;;;;;4960830;29;20055;-79
2023/07/22 05:36:24;;;;;;;3.28;2.85;;;;;;;;;;4924951;29;20051;-79
2023/07/22 05:38:51;;;;;;;3.67;3.15;;;;;;;;;;4954769;29;20051;-80
2023/07/22 05:41:21;;;;;;;3.05;2.75;;;;;;;;;;4930853;29;20409;-78
2023/07/22 05:43:48;;;;;;;5.10;3.08;;;;;;;;;;4943675;29;20051;-79
2023/07/22 05:46:15;;;;;;;4.07;2.58;;;;;;;;;;4961610;28;20403;-79
2023/07/22 05:48:43;;;;;;;4.57;3.85;;;;;;;;;;4953862;29;20051;-79
2023/07/22 05:51:10;;;;;;;4.22;2.78;;;;;;;;;;4945933;29;20047;-79
2023/07/22 05:53:40;;;;;;;3.17;2.80;;;;;;;;;;4921450;29;20043;-79
2023/07/22 05:56:10;;;;;;;2.92;2.60;;;;;;;;;;4957445;28;20055;-80
2023/07/22 05:58:37;;;;;;;3.90;3.17;;;;;;;;;;4935174;29;20051;-79
2023/07/22 06:01:07;;;;;;;3.35;2.88;;;;;;;;;;4922400;29;20051;-79
2023/07/22 06:03:37;;;;;;;3.67;3.38;;;;;;;;;;4955905;29;20051;-79
2023/07/22 06:06:09;;;;;;;3.75;3.40;;;;;;;;;;4951288;28;20051;-79
2023/07/22 06:08:40;;;;;;;3.45;3.00;;;;;;;;;;4909501;29;20047;-79
2023/07/22 06:11:07;;;;;;;5.75;3.03;;;;;;;;;;4923764;29;20490;-80
2023/07/22 06:13:34;;;;;;;5.82;3.38;;;;;;;;;;4957906;29;20055;-79
2023/07/22 06:16:04;;;;;;;4.63;3.95;;;;;;;;;;4922275;29;20056;-79
2023/07/22 06:18:31;;;;;;;5.15;3.67;;;;;;;;;;4920746;29;20056;-79
2023/07/22 06:20:59;;;;;;;3.90;3.50;;;;;;;;;;4923346;29;20051;-79
2023/07/22 06:23:26;;;;;;;5.10;3.35;;;;;;;;;;4921410;29;20066;-79
2023/07/22 06:25:55;;;;;;;4.75;3.75;;;;;;;;;;4923162;29;20051;-79
2023/07/22 06:28:22;;;;;;;4.05;3.65;;;;;;;;;;4937535;29;20055;-79
2023/07/22 06:30:49;;;;;;;3.92;2.95;;;;;;;;;;4922823;29;20048;-79
2023/07/22 06:33:17;;;;;;;3.97;3.13;;;;;;;;;;4939278;29;20494;-79
2023/07/22 06:35:47;;;;;;;4.95;3.40;;;;;;;;;;4938080;29;20434;-79
2023/07/22 06:38:14;;;;;;;4.32;3.33;;;;;;;;;;4918053;29;20129;-79
2023/07/22 06:40:42;;;;;;;5.22;4.18;;;;;;;;;;4937408;29;20051;-79
2023/07/22 06:43:15;;;;;;;4.35;3.67;;;;;;;;;;4939763;29;20059;-79
2023/07/22 06:45:45;;;;;;;5.07;3.63;;;;;;;;;;4916316;29;20049;-79
2023/07/22 06:48:12;;;;;;;5.43;3.47;;;;;;;;;;4940198;29;20048;-78
2023/07/22 06:50:40;;;;;;;3.85;3.55;;;;;;;;;;4923547;29;20055;-78
2023/07/22 06:53:07;;;;;;;6.82;4.13;;;;;;;;;;4960201;29;20052;-79
2023/07/22 06:55:34;;;;;;;3.50;3.08;;;;;;;;;;4928170;29;20055;-79
2023/07/22 06:58:02;;;;;;;6.97;3.28;;;;;;;;;;4922270;29;20043;-79
2023/07/22 07:00:30;;;;;;;4.30;3.00;;;;;;;;;;4926286;29;20683;-79
2023/07/22 07:03:00;;;;;;;5.45;3.85;;;;;;;;;;4927764;29;20063;-79
2023/07/22 07:05:30;;;;;;;3.83;3.53;;;;;;;;;;4923898;29;20059;-78
2023/07/22 07:07:57;;;;;;;3.67;3.15;;;;;;;;;;4932389;29;20055;-79
2023/07/22 07:38:30;;;;;;;4.05;3.55;;;;;;;;;;4817665;23;20082;-78
2023/07/22 07:41:15;;;;;;;;;;;;;;;;;;;;;
2023/07/22 07:47:08;;;;;;;3.90;3.50;;;;;;;;;;4948874;28;20050;-78
2023/07/22 07:49:35;;;;;;;5.00;3.50;;;;;;;;;;4938537;29;20077;-79
2023/07/22 07:52:03;;;;;;;4.25;3.50;;;;;;;;;;4938287;29;20205;-79
2023/07/22 07:54:52;;;;;;;3.10;2.80;;;;;;;;;;4918886;29;20509;-79
2023/07/22 07:57:33;;;;;;;3.92;3.00;;;;;;;;;;4951785;28;20047;-79
2023/07/22 08:00:28;;;;;;;3.60;3.22;;;;;;;;;;4924951;28;20397;-79
2023/07/22 08:02:58;;;;;;;4.88;2.97;;;;;;;;;;4939151;29;20078;-79
2023/07/22 08:05:30;;;;;;;3.67;3.25;;;;;;;;;;4936437;29;20039;-79
2023/07/22 08:08:05;;;;;;;5.35;3.10;;;;;;;;;;4932242;29;20062;-79
2023/07/22 08:10:34;;;;;;;3.17;2.88;;;;;;;;;;4956464;28;20476;-79
2023/07/22 08:13:26;;;;;;;7.10;3.30;;;;;;;;;;4936871;28;20077;-79
2023/07/22 08:15:54;;;;;;;3.55;3.25;;;;;;;;;;4917815;29;20433;-79
2023/07/22 08:18:26;;;;;;;4.20;2.78;;;;;;;;;;4937170;29;20055;-79
2023/07/22 08:20:54;;;;;;;4.05;3.10;;;;;;;;;;4935101;29;20055;-79
2023/07/22 08:23:24;;;;;;;3.13;2.83;;;;;;;;;;4920847;29;20043;-79
2023/07/22 08:25:56;;;;;;;3.13;2.80;;;;;;;;;;4923107;29;20063;-79
2023/07/22 08:28:25;;;;;;;3.55;2.35;;;;;;;;;;4931227;29;20052;-78
2023/07/22 08:31:07;;;;;;;;;;;;;;;;;;;;;
2023/07/22 08:33:35;;;;;;;4.35;2.97;;;;;;;;;;4943614;28;20055;-78
2023/07/22 08:36:28;;;;;;;3.00;2.50;;;;;;;;;;4945692;28;20047;-78
2023/07/22 08:39:09;;;;;;;3.30;2.58;;;;;;;;;;4950917;29;20502;-78
2023/07/22 08:41:45;;;;;;;3.25;2.47;;;;;;;;;;4931264;29;20047;-78
2023/07/22 08:44:14;;;;;;;3.45;2.45;;;;;;;;;;4918381;29;20055;-78
2023/07/22 08:46:42;;;;;;;4.43;2.95;;;;;;;;;;4928280;29;20062;-78
2023/07/22 08:49:17;;;;;;;4.28;3.03;;;;;;;;;;4950177;29;20047;-78
2023/07/22 08:51:51;;;;;;;3.15;2.85;;;;;;;;;;4931504;29;20047;-79
2023/07/22 08:54:21;;;;;;;3.53;3.05;;;;;;;;;;4935659;29;20062;-79
2023/07/22 08:56:51;;;;;;;3.67;3.38;;;;;;;;;;4929526;29;20052;-79
2023/07/22 08:59:19;;;;;;;3.15;2.65;;;;;;;;;;4911726;28;20051;-79
2023/07/22 09:01:47;;;;;;;3.05;2.75;;;;;;;;;;4930015;29;20426;-79
2023/07/22 09:04:14;;;;;;;3.72;2.78;;;;;;;;;;4916824;28;20055;-79
2023/07/22 09:06:43;;;;;;;4.45;2.92;;;;;;;;;;4934699;29;20478;-79
2023/07/22 09:09:11;;;;;;;5.10;2.53;;;;;;;;;;4934785;28;20054;-79
2023/07/22 09:11:39;;;;;;;2.95;2.40;;;;;;;;;;4934121;29;20540;-79
2023/07/22 09:14:08;;;;;;;2.90;2.30;;;;;;;;;;4913751;29;20454;-79
2023/07/22 09:16:36;;;;;;;7.28;2.47;;;;;;;;;;4931922;28;20055;-79
2023/07/22 09:19:05;;;;;;;3.15;2.50;;;;;;;;;;4934890;29;20494;-79
2023/07/22 09:21:35;;;;;;;5.88;2.92;;;;;;;;;;4912186;28;20430;-79
2023/07/22 09:24:03;;;;;;;3.25;1.95;;;;;;;;;;4919101;29;20532;-79
2023/07/22 09:26:33;;;;;;;2.70;1.83;;;;;;;;;;4930019;28;20706;-79
2023/07/22 09:29:03;;;;;;;3.50;2.03;;;;;;;;;;4942947;28;20055;-79
2023/07/22 09:31:33;;;;;;;2.30;1.35;;;;;;;;;;4929050;28;20048;-79
2023/07/22 09:34:10;;;;;;;2.22;2.03;;;;;;;;;;4917741;29;20051;-79
2023/07/22 09:36:50;;;;;;;2.13;1.85;;;;;;;;;;4932899;28;20413;-79
2023/07/22 09:39:18;;;;;;;3.13;1.95;;;;;;;;;;4932965;29;20062;-78
2023/07/22 09:41:45;;;;;;;2.05;1.80;;;;;;;;;;4948986;28;20047;-79
2023/07/22 09:44:13;;;;;;;3.63;2.17;;;;;;;;;;4922088;29;20528;-79
2023/07/22 09:46:42;;;;;;;2.28;1.85;;;;;;;;;;4933327;28;20399;-79
2023/07/22 09:49:11;;;;;;;2.90;2.00;;;;;;;;;;4937526;29;20051;-79
2023/07/22 09:51:39;;;;;;;2.65;1.60;;;;;;;;;;4955532;28;20044;-79
2023/07/22 09:54:07;;;;;;;2.00;1.63;;;;;;;;;;4954556;29;20043;-79
2023/07/22 09:56:44;;;;;;;3.33;1.70;;;;;;;;;;4937991;28;20067;-79
2023/07/22 09:59:12;;;;;;;3.08;2.08;;;;;;;;;;4955176;28;20051;-79
2023/07/22 10:01:42;;;;;;;3.20;1.75;;;;;;;;;;4938231;29;20047;-79
2023/07/22 10:04:11;;;;;;;1.70;1.60;;;;;;;;;;4941142;29;20612;-79
2023/07/22 10:06:39;;;;;;;3.03;1.40;;;;;;;;;;4936906;28;20066;-79
2023/07/22 10:09:07;;;;;;;1.45;1.30;;;;;;;;;;4926984;29;20058;-79
2023/07/22 10:11:36;;;;;;;4.40;1.88;;;;;;;;;;4951756;28;20528;-79
2023/07/22 10:14:04;;;;;;;3.15;1.60;;;;;;;;;;4923194;29;20417;-79
2023/07/22 10:16:31;;;;;;;1.95;1.75;;;;;;;;;;4917097;29;20047;-79
2023/07/22 10:19:00;;;;;;;2.20;1.83;;;;;;;;;;4919248;28;20059;-79
2023/07/22 10:21:29;;;;;;;1.77;1.30;;;;;;;;;;4932335;29;20051;-79
2023/07/22 10:23:56;;;;;;;2.72;1.60;;;;;;;;;;4930289;28;20051;-78
2023/07/22 10:26:24;;;;;;;2.45;1.20;;;;;;;;;;4928012;29;20410;-77
2023/07/22 10:28:52;;;;;;;2.38;2.05;;;;;;;;;;4932057;28;20284;-78
2023/07/22 10:31:22;;;;;;;2.42;1.70;;;;;;;;;;4929252;28;20047;-79
2023/07/22 10:33:52;;;;;;;2.75;1.45;;;;;;;;;;4950753;28;20124;-78
2023/07/22 10:36:21;;;;;;;1.80;1.27;;;;;;;;;;4936735;29;20055;-78
2023/07/22 10:38:56;;;;;;;3.33;1.73;;;;;;;;;;4935723;29;20525;-78
2023/07/22 10:41:23;;;;;;;6.43;2.10;;;;;;;;;;4924191;29;20043;-78
2023/07/22 10:43:55;;;;;;;3.08;2.03;;;;;;;;;;4954095;28;20058;-79
2023/07/22 10:46:32;;;;;;;2.15;1.13;;;;;;;;;;4939557;29;20059;-79
2023/07/22 10:49:08;;;;;;;1.88;1.25;;;;;;;;;;4933155;29;20067;-79
2023/07/22 10:51:38;;;;;;;1.33;1.23;;;;;;;;;;4920372;29;20066;-79
2023/07/22 10:54:11;;;;;;;1.88;1.20;;;;;;;;;;4952897;29;20066;-79
2023/07/22 10:56:39;;;;;;;1.52;1.42;;;;;;;;;;4931722;28;20062;-79
2023/07/22 10:59:07;;;;;;;1.77;1.52;;;;;;;;;;4921901;28;20415;-78
2023/07/22 11:01:38;;;;;;;1.60;1.23;;;;;;;;;;4924150;29;20517;-79
2023/07/22 11:04:30;;;;;;;3.67;1.30;;;;;;;;;;4922477;29;20418;-79
2023/07/22 11:07:05;;;;;;;2.75;1.40;;;;;;;;;;4912448;29;20059;-79
2023/07/22 11:09:36;;;;;;;2.70;1.80;;;;;;;;;;4932969;28;20062;-79
2023/07/22 11:12:05;;;;;;;3.35;1.60;;;;;;;;;;4933116;28;20394;-79
2023/07/22 11:14:33;;;;;;;4.63;1.40;;;;;;;;;;4931987;29;20055;-79
2023/07/22 11:17:03;;;;;;;2.35;1.30;;;;;;;;;;4947974;28;20046;-78
2023/07/22 11:19:36;;;;;;;1.73;1.33;;;;;;;;;;4919733;29;20528;-78
2023/07/22 11:22:07;;;;;;;1.50;1.10;;;;;;;;;;4950595;28;20058;-79
2023/07/22 11:24:35;;;;;;;1.60;1.30;;;;;;;;;;4951760;28;20054;-78
2023/07/22 11:27:06;;;;;;;1.83;1.30;;;;;;;;;;4932757;29;20050;-78
2023/07/22 11:29:34;;;;;;;1.60;1.48;;;;;;;;;;4935465;29;20061;-78
2023/07/22 11:32:01;;;;;;;9.10;1.90;;;;;;;;;;4919675;29;20054;-79
2023/07/22 11:34:30;;;;;;;4.03;1.42;;;;;;;;;;4916448;29;20493;-78
2023/07/22 11:36:58;;;;;;;2.60;1.50;;;;;;;;;;4935731;28;20461;-78
2023/07/22 11:39:31;;;;;;;3.17;2.03;;;;;;;;;;4921203;29;20043;-78
2023/07/22 11:42:01;;;;;;;3.38;1.30;;;;;;;;;;4921898;29;20422;-79
2023/07/22 11:44:31;;;;;;;1.27;1.02;;;;;;;;;;4919802;29;20058;-79
2023/07/22 11:47:03;;;;;;;1.40;1.30;;;;;;;;;;4954266;28;20047;-79
2023/07/22 11:49:34;;;;;;;1.70;1.23;;;;;;;;;;4920826;29;20418;-79
2023/07/22 11:52:03;;;;;;;1.40;1.27;;;;;;;;;;4934301;29;20058;-79
2023/07/22 11:54:35;;;;;;;2.47;1.63;;;;;;;;;;4919461;29;20062;-79
2023/07/22 11:57:14;;;;;;;3.42;1.38;;;;;;;;;;4920972;29;20047;-79
2023/07/22 11:59:45;;;;;;;3.05;1.40;;;;;;;;;;4935950;28;20062;-79
2023/07/22 12:02:14;;;;;;;2.30;1.58;;;;;;;;;;4934034;29;20052;-78
2023/07/22 12:04:41;;;;;;;10.13;1.95;;;;;;;;;;4915708;28;20060;-78
2023/07/22 12:07:22;;;;;;;2.80;1.35;;;;;;;;;;4932808;29;20047;-78
2023/07/22 12:09:52;;;;;;;3.53;1.67;;;;;;;;;;4933845;28;20058;-78
2023/07/22 12:12:19;;;;;;;5.03;1.75;;;;;;;;;;4934372;29;20046;-78
2023/07/22 12:14:46;;;;;;;2.72;1.65;;;;;;;;;;4933027;28;20055;-78
2023/07/22 12:17:16;;;;;;;2.50;1.30;;;;;;;;;;4934896;29;20050;-78
2023/07/22 12:19:52;;;;;;;3.08;1.63;;;;;;;;;;4934656;28;20058;-78
2023/07/22 12:22:21;;;;;;;3.13;1.70;;;;;;;;;;4932864;28;20055;-78
2023/07/22 12:24:50;;;;;;;1.45;1.35;;;;;;;;;;4912675;29;20048;-78
2023/07/22 12:27:20;;;;;;;2.35;1.60;;;;;;;;;;4931368;29;20421;-78
2023/07/22 12:29:47;;;;;;;2.05;1.35;;;;;;;;;;4930258;29;20061;-78
2023/07/22 12:32:14;;;;;;;2.78;1.20;;;;;;;;;;4934582;28;20059;-78
2023/07/22 12:34:44;;;;;;;1.98;1.25;;;;;;;;;;4949839;28;20058;-78
2023/07/22 12:37:13;;;;;;;2.58;1.58;;;;;;;;;;4914108;28;20524;-78
2023/07/22 12:39:43;;;;;;;1.80;1.70;;;;;;;;;;4949946;28;20414;-78
2023/07/22 12:42:14;;;;;;;2.28;1.73;;;;;;;;;;4934532;29;20058;-78
2023/07/22 12:44:43;;;;;;;2.28;1.70;;;;;;;;;;4940333;28;20042;-78
2023/07/22 12:47:11;;;;;;;2.67;1.70;;;;;;;;;;4931515;28;20075;-78
2023/07/22 12:49:40;;;;;;;1.80;1.50;;;;;;;;;;4935735;29;20078;-78
2023/07/22 12:52:09;;;;;;;2.55;1.67;;;;;;;;;;4950044;28;20058;-78
2023/07/22 12:54:36;;;;;;;1.92;1.45;;;;;;;;;;4913317;29;20044;-78
2023/07/22 12:57:06;;;;;;;3.03;1.33;;;;;;;;;;4930506;29;20055;-78
2023/07/22 12:59:37;;;;;;;3.17;2.03;;;;;;;;;;4932381;29;20051;-78
2023/07/22 13:02:05;;;;;;;2.00;1.48;;;;;;;;;;4942511;29;20538;-78
2023/07/22 13:04:32;;;;;;;1.88;1.27;;;;;;;;;;4931025;29;20054;-78
2023/07/22 13:07:00;;;;;;;2.70;1.42;;;;;;;;;;4913841;29;20062;-78
2023/07/22 13:09:27;;;;;;;1.60;1.23;;;;;;;;;;4917198;29;20039;-78
2023/07/22 13:11:56;;;;;;;1.55;1.30;;;;;;;;;;4921769;29;20062;-80
2023/07/22 13:14:24;;;;;;;4.20;1.60;;;;;;;;;;4941760;29;20043;-80
2023/07/22 13:16:52;;;;;;;2.45;1.50;;;;;;;;;;4935697;29;20506;-80
2023/07/22 13:19:22;;;;;;;3.47;1.75;;;;;;;;;;4954890;28;20417;-80
2023/07/22 13:21:51;;;;;;;4.00;2.00;;;;;;;;;;4923358;29;20056;-79
2023/07/22 13:24:22;;;;;;;3.05;1.58;;;;;;;;;;4925417;29;20059;-79
2023/07/22 13:26:49;;;;;;;1.90;1.35;;;;;;;;;;4927822;29;20486;-79
2023/07/22 13:29:17;;;;;;;3.10;1.35;;;;;;;;;;4950156;28;20047;-79
2023/07/22 13:31:44;;;;;;;3.22;1.38;;;;;;;;;;4936991;29;20047;-79
2023/07/22 13:34:17;;;;;;;2.00;1.55;;;;;;;;;;4962172;28;20058;-79
2023/07/22 13:36:45;;;;;;;2.28;1.42;;;;;;;;;;4922613;29;20056;-79
2023/07/22 13:39:12;;;;;;;1.80;1.45;;;;;;;;;;4940686;23;20047;-79
2023/07/22 13:41:44;;;;;;;3.05;1.45;;;;;;;;;;4931595;29;20434;-79
2023/07/22 13:44:21;;;;;;;1.73;1.30;;;;;;;;;;4915843;29;20052;-79
2023/07/22 13:46:48;;;;;;;5.95;1.70;;;;;;;;;;4917783;29;20462;-79
2023/07/22 13:49:17;;;;;;;2.28;1.95;;;;;;;;;;4932841;29;20052;-79
2023/07/22 13:51:45;;;;;;;2.58;1.98;;;;;;;;;;4915784;29;20074;-78
2023/07/22 13:54:12;;;;;;;5.68;2.10;;;;;;;;;;4916197;29;20052;-79
2023/07/22 13:56:40;;;;;;;2.67;1.27;;;;;;;;;;4925913;29;20056;-79
2023/07/22 13:59:07;;;;;;;2.80;1.55;;;;;;;;;;4925841;29;20055;-79
2023/07/22 14:01:35;;;;;;;2.00;1.77;;;;;;;;;;4920047;29;20056;-78
2023/07/22 14:04:05;;;;;;;1.88;1.30;;;;;;;;;;4928795;29;20122;-79
2023/07/22 14:06:34;;;;;;;3.55;1.95;;;;;;;;;;4927121;29;20044;-79
2023/07/22 14:09:04;;;;;;;2.40;2.20;;;;;;;;;;4906022;29;20052;-78
2023/07/22 14:11:34;;;;;;;2.88;1.52;;;;;;;;;;4915135;29;20051;-79
2023/07/22 14:14:01;;;;;;;3.40;1.80;;;;;;;;;;4916221;29;20059;-79
2023/07/22 14:16:31;;;;;;;2.30;1.50;;;;;;;;;;4931781;29;20064;-79
2023/07/22 14:19:01;;;;;;;2.60;1.60;;;;;;;;;;4923989;29;20052;-79
2023/07/22 14:21:28;;;;;;;2.25;1.70;;;;;;;;;;4920332;29;20052;-79
2023/07/22 14:23:59;;;;;;;3.65;1.48;;;;;;;;;;4927683;29;20048;-79
2023/07/22 14:26:29;;;;;;;3.72;1.73;;;;;;;;;;4928870;29;20048;-79
2023/07/22 14:28:58;;;;;;;2.55;1.83;;;;;;;;;;4924564;29;20060;-79
2023/07/22 14:31:26;;;;;;;2.72;1.52;;;;;;;;;;4933347;29;20509;-79
2023/07/22 14:33:53;;;;;;;3.17;1.70;;;;;;;;;;4928949;29;20063;-79
2023/07/22 14:36:20;;;;;;;2.40;1.70;;;;;;;;;;4909309;29;20048;-79
2023/07/22 14:38:47;;;;;;;6.00;1.75;;;;;;;;;;4927234;29;20426;-78
2023/07/22 14:41:19;;;;;;;6.68;1.80;;;;;;;;;;4925143;29;20048;-79
2023/07/22 14:43:46;;;;;;;6.22;2.85;;;;;;;;;;4925262;29;20511;-79
2023/07/22 14:46:16;;;;;;;4.85;2.05;;;;;;;;;;4914517;29;20083;-78
2023/07/22 14:48:44;;;;;;;1.85;1.42;;;;;;;;;;4917646;29;20052;-79
2023/07/22 14:51:12;;;;;;;2.53;1.85;;;;;;;;;;4937162;29;20418;-80
2023/07/22 14:53:39;;;;;;;5.07;2.25;;;;;;;;;;4913425;29;20056;-80
2023/07/22 14:56:09;;;;;;;2.03;1.80;;;;;;;;;;4930934;29;20055;-80
2023/07/22 14:58:40;;;;;;;3.85;2.45;;;;;;;;;;4943501;29;20052;-80
2023/07/22 15:01:08;;;;;;;3.25;1.92;;;;;;;;;;4937704;29;20048;-81
2023/07/22 15:03:36;;;;;;;2.88;1.63;;;;;;;;;;4911355;29;20072;-81
2023/07/22 15:06:09;;;;;;;1.95;1.75;;;;;;;;;;4915600;29;20055;-80
2023/07/22 15:08:36;;;;;;;2.25;1.88;;;;;;;;;;4930905;29;20062;-80
2023/07/22 15:11:05;;;;;;;3.25;2.28;;;;;;;;;;4928419;29;20051;-80
2023/07/22 15:13:35;;;;;;;8.60;2.35;;;;;;;;;;4930110;29;20068;-80
2023/07/22 15:16:04;;;;;;;1.75;1.42;;;;;;;;;;4914343;29;20055;-80
2023/07/22 15:18:32;;;;;;;4.70;2.17;;;;;;;;;;4929860;29;20067;-80
2023/07/22 15:20:59;;;;;;;3.15;1.85;;;;;;;;;;4924794;29;20048;-80
2023/07/22 15:23:26;;;;;;;2.85;2.20;;;;;;;;;;4928364;29;20422;-80
2023/07/22 15:25:53;;;;;;;1.77;1.60;;;;;;;;;;4934061;29;20048;-80
2023/07/22 15:28:23;;;;;;;2.40;1.83;;;;;;;;;;4933007;29;20055;-80
2023/07/22 15:30:50;;;;;;;3.10;1.75;;;;;;;;;;4939180;29;20059;-80